createdAt,value
2022-07-25T00:00:56.307Z,8.38
2022-07-25T00:05:59.424Z,7.75
2022-07-25T00:11:02.295Z,7.85
2022-07-25T00:16:07.342Z,7.75
2022-07-25T00:21:10.490Z,8.73
2022-07-25T00:26:14.492Z,8.48
2022-07-25T00:31:18.794Z,8.25
2022-07-25T00:41:24.903Z,8.15
2022-07-25T00:46:32.672Z,7.72
2022-07-25T00:51:38.232Z,7.32
2022-07-25T00:56:41.864Z,7.72
2022-07-25T01:01:48.309Z,8.30
2022-07-25T01:06:51.510Z,7.43
2022-07-25T01:11:54.407Z,7.70
2022-07-25T01:16:58.662Z,6.43
2022-07-25T01:22:02.899Z,7.15
2022-07-25T01:27:06.002Z,7.13
2022-07-25T01:32:08.887Z,6.88
2022-07-25T01:37:13.115Z,7.35
2022-07-25T01:42:16.110Z,7.47
2022-07-25T01:47:18.981Z,7.38
2022-07-25T01:52:23.182Z,8.05
2022-07-25T01:57:30.790Z,7.22
2022-07-25T02:02:33.967Z,6.70
2022-07-25T02:07:38.167Z,6.07
2022-07-25T02:12:41.009Z,5.68
2022-07-25T02:17:43.874Z,6.40
2022-07-25T02:22:48.083Z,6.50
2022-07-25T02:27:51.066Z,6.90
2022-07-25T02:32:54.426Z,6.72
2022-07-25T02:37:58.903Z,6.07
2022-07-25T02:48:04.919Z,6.95
2022-07-25T02:53:09.136Z,7.40
2022-07-25T02:58:12.343Z,8.30
2022-07-25T03:03:15.190Z,7.57
2022-07-25T03:08:19.408Z,7.53
2022-07-25T03:13:22.282Z,8.77
2022-07-25T03:18:25.134Z,7.75
2022-07-25T03:23:31.040Z,7.47
2022-07-25T03:28:33.908Z,7.10
2022-07-25T03:33:36.743Z,6.38
2022-07-25T03:38:41.306Z,6.38
2022-07-25T03:48:47.229Z,5.85
2022-07-25T03:54:03.961Z,6.30
2022-07-25T03:59:07.571Z,7.20
2022-07-25T04:04:11.270Z,6.90
2022-07-25T04:09:17.146Z,6.77
2022-07-25T04:14:20.025Z,6.05
2022-07-25T04:19:22.892Z,6.30
2022-07-25T04:24:30.358Z,5.97
2022-07-25T04:29:33.225Z,6.15
2022-07-25T04:34:36.054Z,6.65
2022-07-25T04:39:40.285Z,5.90
2022-07-25T04:44:43.181Z,6.55
2022-07-25T04:49:46.104Z,7.00
2022-07-25T04:54:50.322Z,7.13
2022-07-25T04:59:53.218Z,6.00
2022-07-25T05:04:56.558Z,6.45
2022-07-25T05:10:01.770Z,6.68
2022-07-25T05:20:09.061Z,6.05
2022-07-25T05:25:13.589Z,6.50
2022-07-25T05:35:19.306Z,6.15
2022-07-25T05:40:24.328Z,6.25
2022-07-25T05:45:27.218Z,6.47
2022-07-25T05:50:30.110Z,6.75
2022-07-25T05:55:34.677Z,6.38
2022-07-25T06:00:42.908Z,6.35
2022-07-25T06:05:46.583Z,5.90
2022-07-25T06:10:50.814Z,5.97
2022-07-25T06:15:54.410Z,5.45
2022-07-25T06:20:57.310Z,5.50
2022-07-25T06:26:01.530Z,5.50
2022-07-25T06:36:07.819Z,5.50
2022-07-25T06:41:16.279Z,5.20
2022-07-25T06:46:19.257Z,5.88
2022-07-25T06:51:23.680Z,6.25
2022-07-25T06:56:31.423Z,6.10
2022-07-25T07:01:34.351Z,6.28
2022-07-25T07:06:38.706Z,5.90
2022-07-25T07:11:42.918Z,5.78
2022-07-25T07:16:45.800Z,5.70
2022-07-25T07:21:51.517Z,5.20
2022-07-25T07:26:56.132Z,5.67
2022-07-25T07:31:59.013Z,4.70
2022-07-25T07:37:02.581Z,4.82
2022-07-25T07:42:07.041Z,5.45
2022-07-25T07:47:14.364Z,4.88
2022-07-25T07:52:17.527Z,5.10
2022-07-25T07:57:21.729Z,4.78
2022-07-25T08:02:24.608Z,5.75
2022-07-25T08:07:27.568Z,4.97
2022-07-25T08:12:31.779Z,5.07
2022-07-25T08:17:34.610Z,4.72
2022-07-25T08:22:38.908Z,4.93
2022-07-25T08:27:43.496Z,4.97
2022-07-25T08:32:50.942Z,5.00
2022-07-25T08:37:55.118Z,4.95
2022-07-25T08:43:00.062Z,4.80
2022-07-25T08:48:02.961Z,4.70
2022-07-25T08:53:31.471Z,4.40
2022-07-25T08:58:30.454Z,4.37
2022-07-25T09:03:34.123Z,4.55
2022-07-25T09:08:36.975Z,4.60
2022-07-25T09:13:41.661Z,4.90
2022-07-25T09:18:45.498Z,4.38
2022-07-25T09:23:48.338Z,4.10
2022-07-25T09:28:54.864Z,4.37
2022-07-25T09:33:59.531Z,4.63
2022-07-25T09:39:05.771Z,4.38
2022-07-25T09:44:18.476Z,4.47
2022-07-25T09:49:21.377Z,4.07
2022-07-25T09:54:24.312Z,4.25
2022-07-25T09:59:28.687Z,4.53
2022-07-25T10:04:44.598Z,4.28
2022-07-25T10:09:50.246Z,5.00
2022-07-25T10:15:15.888Z,4.07
2022-07-25T10:20:29.194Z,4.28
2022-07-25T10:30:38.224Z,4.25
2022-07-25T10:35:41.621Z,4.25
2022-07-25T10:40:46.576Z,3.97
2022-07-25T10:45:53.715Z,4.50
2022-07-25T10:51:00.180Z,4.85
2022-07-25T10:56:09.336Z,4.38
2022-07-25T11:01:15.304Z,4.22
2022-07-25T11:06:29.950Z,4.05
2022-07-25T11:11:37.817Z,4.53
2022-07-25T11:16:42.165Z,4.50
2022-07-25T11:21:46.571Z,4.38
2022-07-25T11:26:51.310Z,4.43
2022-07-25T11:31:58.673Z,4.70
2022-07-25T11:37:03.153Z,4.40
2022-07-25T11:42:09.058Z,4.18
2022-07-25T11:47:25.350Z,4.35
2022-07-25T11:52:30.991Z,4.53
2022-07-25T11:57:35.641Z,4.63
2022-07-25T12:02:40.046Z,4.65
2022-07-25T12:07:45.825Z,4.50
2022-07-25T12:12:51.070Z,4.53
2022-07-25T12:17:57.027Z,4.57
2022-07-25T12:23:01.906Z,4.38
2022-07-25T12:28:05.766Z,4.63
2022-07-25T12:33:10.374Z,4.45
2022-07-25T12:38:14.369Z,4.05
2022-07-25T12:43:17.268Z,4.57
2022-07-25T12:48:21.503Z,4.70
2022-07-25T12:53:24.446Z,4.32
2022-07-25T12:58:27.431Z,4.50
2022-07-25T13:03:31.770Z,4.47
2022-07-25T13:08:37.747Z,4.05
2022-07-25T13:13:40.978Z,4.70
2022-07-25T13:18:45.301Z,4.80
2022-07-25T13:23:48.410Z,4.45
2022-07-25T13:28:54.286Z,4.50
2022-07-25T13:34:02.323Z,4.53
2022-07-25T13:39:05.875Z,4.50
2022-07-25T13:44:09.125Z,4.80
2022-07-25T13:49:13.608Z,4.57
2022-07-25T13:54:16.613Z,4.15
2022-07-25T13:59:21.643Z,4.60
2022-07-25T14:04:26.301Z,4.68
2022-07-25T14:09:29.179Z,4.68
2022-07-25T14:14:32.070Z,4.43
2022-07-25T14:19:36.324Z,4.45
2022-07-25T14:24:39.876Z,4.75
2022-07-25T14:29:42.788Z,4.30
2022-07-25T14:34:47.054Z,4.35
2022-07-25T14:39:49.905Z,3.97
2022-07-25T14:44:52.918Z,4.07
2022-07-25T14:49:57.131Z,4.03
2022-07-25T14:55:00.991Z,4.30
2022-07-25T15:00:05.397Z,4.15
2022-07-25T15:05:10.478Z,4.15
2022-07-25T15:10:14.393Z,4.30
2022-07-25T15:15:17.231Z,4.10
2022-07-25T15:20:21.632Z,4.20
2022-07-25T15:30:48.295Z,3.90
2022-07-25T15:35:52.826Z,3.92
2022-07-25T15:40:55.787Z,3.55
2022-07-25T15:45:58.696Z,3.67
2022-07-25T15:51:02.899Z,3.47
2022-07-25T15:56:06.264Z,4.15
2022-07-25T16:01:09.359Z,4.00
2022-07-25T16:06:18.627Z,3.38
2022-07-25T16:11:21.813Z,3.65
2022-07-25T16:16:25.799Z,3.90
2022-07-25T16:21:30.364Z,3.85
2022-07-25T16:26:33.285Z,4.10
2022-07-25T16:31:36.180Z,3.38
2022-07-25T16:36:40.505Z,3.25
2022-07-25T16:41:44.475Z,4.40
2022-07-25T16:46:47.422Z,3.72
2022-07-25T16:51:52.182Z,4.10
2022-07-25T16:56:59.425Z,15.50
2022-07-25T17:02:03.929Z,3.92
2022-07-25T17:07:08.220Z,3.90
2022-07-25T17:12:11.167Z,3.92
2022-07-25T17:17:14.424Z,4.38
2022-07-25T17:22:18.673Z,4.05
2022-07-25T17:27:21.624Z,3.95
2022-07-25T17:32:29.557Z,4.13
2022-07-25T17:37:34.344Z,4.20
2022-07-25T17:42:40.656Z,4.55
2022-07-25T17:47:46.184Z,4.10
2022-07-25T17:52:52.478Z,3.88
2022-07-25T17:57:55.547Z,3.78
2022-07-25T18:02:59.539Z,4.10
2022-07-25T18:08:04.051Z,4.30
2022-07-25T18:13:09.475Z,3.97
2022-07-25T18:18:17.023Z,4.82
2022-07-25T18:23:27.039Z,3.72
2022-07-25T18:28:29.908Z,4.07
2022-07-25T18:33:32.774Z,5.00
2022-07-25T18:38:37.355Z,4.50
2022-07-25T18:43:40.225Z,4.45
2022-07-25T18:48:45.817Z,4.00
2022-07-25T18:53:50.100Z,3.78
2022-07-25T18:58:53.013Z,4.60
2022-07-25T19:03:56.662Z,4.10
2022-07-25T19:09:00.875Z,4.17
2022-07-25T19:14:03.988Z,3.92
2022-07-25T19:19:07.153Z,3.95
2022-07-25T19:24:11.734Z,3.87
2022-07-25T19:29:16.420Z,3.67
2022-07-25T19:34:19.244Z,4.05
2022-07-25T19:39:24.516Z,3.63
2022-07-25T19:44:27.430Z,3.15
2022-07-25T19:49:30.268Z,3.65
2022-07-25T19:54:34.641Z,3.10
2022-07-25T19:59:37.682Z,2.75
2022-07-25T20:04:40.501Z,3.40
2022-07-25T20:09:44.714Z,3.40
2022-07-25T20:14:47.783Z,3.03
2022-07-25T20:19:51.819Z,3.42
2022-07-25T20:24:56.150Z,6.25
2022-07-25T20:30:00.113Z,3.75
2022-07-25T20:35:03.198Z,3.30
2022-07-25T20:40:09.836Z,4.10
2022-07-25T20:45:13.165Z,3.13
2022-07-25T20:50:16.104Z,3.83
2022-07-25T21:06:46.040Z,2.58
2022-07-25T21:11:48.995Z,2.38
2022-07-25T21:16:52.021Z,2.53
2022-07-25T21:21:56.348Z,2.40
2022-07-25T21:26:59.241Z,2.33
2022-07-25T21:32:02.173Z,2.55
2022-07-25T21:37:06.602Z,2.10
2022-07-25T21:42:10.045Z,2.60
2022-07-25T21:47:13.629Z,2.20
2022-07-25T21:52:18.294Z,1.95
2022-07-25T21:57:21.530Z,2.10
2022-07-25T22:02:24.774Z,1.87
2022-07-25T22:07:29.547Z,1.80
2022-07-25T22:12:32.352Z,1.70
2022-07-25T22:17:48.197Z,1.73
2022-07-25T22:22:53.998Z,1.85
2022-07-25T22:27:56.847Z,1.70
2022-07-25T22:32:59.691Z,1.80
2022-07-25T22:38:03.909Z,1.42
2022-07-25T22:43:06.798Z,1.40
2022-07-25T22:48:09.634Z,1.27
2022-07-25T22:53:13.914Z,1.60
2022-07-25T22:58:16.726Z,1.20
2022-07-25T23:03:19.620Z,1.50
2022-07-25T23:08:23.817Z,1.40
2022-07-25T23:13:26.734Z,1.00
2022-07-25T23:18:29.619Z,1.23
2022-07-25T23:23:33.970Z,1.20
2022-07-25T23:28:36.813Z,1.38
2022-07-25T23:33:39.652Z,1.30
2022-07-25T23:38:43.829Z,1.13
2022-07-25T23:49:01.379Z,1.30
2022-07-25T23:54:06.157Z,1.40
2022-07-25T23:59:09.237Z,0.98
